sensor_id;sensor_type;location;lat;lon;timestamp;P1;durP1;ratioP1;P2;durP2;ratioP2
51332;SDS011;37417;48.118;11.734;2022-10-31T00:01:35;6.38;;;3.17;;
51332;SDS011;37417;48.118;11.734;2022-10-31T00:04:21;8.45;;;3.58;;
51332;SDS011;37417;48.118;11.734;2022-10-31T00:07:06;8.85;;;4.30;;
51332;SDS011;37417;48.118;11.734;2022-10-31T00:09:52;8.50;;;3.70;;
51332;SDS011;37417;48.118;11.734;2022-10-31T00:12:37;9.25;;;3.70;;
51332;SDS011;37417;48.118;11.734;2022-10-31T00:15:23;8.30;;;3.05;;
51332;SDS011;37417;48.118;11.734;2022-10-31T00:18:09;12.50;;;3.28;;
51332;SDS011;37417;48.118;11.734;2022-10-31T00:21:02;5.93;;;3.10;;
51332;SDS011;37417;48.118;11.734;2022-10-31T00:23:47;6.88;;;3.28;;
51332;SDS011;37417;48.118;11.734;2022-10-31T00:26:33;11.95;;;4.03;;
51332;SDS011;37417;48.118;11.734;2022-10-31T00:29:19;7.35;;;3.83;;
51332;SDS011;37417;48.118;11.734;2022-10-31T00:32:04;6.57;;;3.25;;
51332;SDS011;37417;48.118;11.734;2022-10-31T00:34:50;4.65;;;3.10;;
51332;SDS011;37417;48.118;11.734;2022-10-31T00:37:35;8.40;;;3.33;;
51332;SDS011;37417;48.118;11.734;2022-10-31T00:40:21;11.15;;;3.20;;
51332;SDS011;37417;48.118;11.734;2022-10-31T00:43:06;18.08;;;3.38;;
51332;SDS011;37417;48.118;11.734;2022-10-31T00:45:52;6.45;;;3.05;;
51332;SDS011;37417;48.118;11.734;2022-10-31T00:48:37;6.28;;;2.72;;
51332;SDS011;37417;48.118;11.734;2022-10-31T00:51:23;10.18;;;3.08;;
51332;SDS011;37417;48.118;11.734;2022-10-31T00:54:08;10.75;;;3.40;;
51332;SDS011;37417;48.118;11.734;2022-10-31T00:56:54;6.38;;;3.03;;
51332;SDS011;37417;48.118;11.734;2022-10-31T00:59:39;12.98;;;3.38;;
51332;SDS011;37417;48.118;11.734;2022-10-31T01:02:25;7.40;;;3.42;;
51332;SDS011;37417;48.118;11.734;2022-10-31T01:05:10;11.48;;;3.33;;
51332;SDS011;37417;48.118;11.734;2022-10-31T01:07:56;8.45;;;3.47;;
51332;SDS011;37417;48.118;11.734;2022-10-31T01:10:41;9.70;;;3.28;;
51332;SDS011;37417;48.118;11.734;2022-10-31T01:13:27;7.68;;;3.30;;
51332;SDS011;37417;48.118;11.734;2022-10-31T01:16:14;7.20;;;2.92;;
51332;SDS011;37417;48.118;11.734;2022-10-31T01:19:00;7.47;;;3.17;;
51332;SDS011;37417;48.118;11.734;2022-10-31T01:21:45;8.30;;;3.22;;
51332;SDS011;37417;48.118;11.734;2022-10-31T01:24:31;5.07;;;3.13;;
51332;SDS011;37417;48.118;11.734;2022-10-31T01:27:16;5.50;;;3.15;;
51332;SDS011;37417;48.118;11.734;2022-10-31T01:30:02;5.82;;;2.95;;
51332;SDS011;37417;48.118;11.734;2022-10-31T01:32:48;10.95;;;3.67;;
51332;SDS011;37417;48.118;11.734;2022-10-31T01:35:33;15.00;;;3.45;;
51332;SDS011;37417;48.118;11.734;2022-10-31T01:38:19;4.88;;;3.15;;
51332;SDS011;37417;48.118;11.734;2022-10-31T01:41:04;5.55;;;3.05;;
51332;SDS011;37417;48.118;11.734;2022-10-31T01:43:51;5.97;;;2.63;;
51332;SDS011;37417;48.118;11.734;2022-10-31T01:46:40;6.18;;;2.92;;
51332;SDS011;37417;48.118;11.734;2022-10-31T01:49:35;8.10;;;3.10;;
51332;SDS011;37417;48.118;11.734;2022-10-31T01:52:24;11.10;;;3.17;;
51332;SDS011;37417;48.118;11.734;2022-10-31T01:55:15;6.82;;;2.63;;
51332;SDS011;37417;48.118;11.734;2022-10-31T01:58:04;7.68;;;2.63;;
51332;SDS011;37417;48.118;11.734;2022-10-31T02:00:53;7.63;;;2.67;;
51332;SDS011;37417;48.118;11.734;2022-10-31T02:03:39;7.95;;;3.22;;
51332;SDS011;37417;48.118;11.734;2022-10-31T02:06:27;6.05;;;2.50;;
51332;SDS011;37417;48.118;11.734;2022-10-31T02:09:14;10.73;;;2.67;;
51332;SDS011;37417;48.118;11.734;2022-10-31T02:12:00;5.53;;;2.30;;
51332;SDS011;37417;48.118;11.734;2022-10-31T02:14:45;5.00;;;2.45;;
51332;SDS011;37417;48.118;11.734;2022-10-31T02:17:31;7.68;;;2.17;;
51332;SDS011;37417;48.118;11.734;2022-10-31T02:20:18;8.52;;;3.08;;
51332;SDS011;37417;48.118;11.734;2022-10-31T02:23:15;5.10;;;2.30;;
51332;SDS011;37417;48.118;11.734;2022-10-31T02:31:44;6.15;;;2.75;;
51332;SDS011;37417;48.118;11.734;2022-10-31T02:34:52;10.63;;;3.10;;
51332;SDS011;37417;48.118;11.734;2022-10-31T02:41:27;9.30;;;2.78;;
51332;SDS011;37417;48.118;11.734;2022-10-31T02:46:48;7.38;;;3.47;;
51332;SDS011;37417;48.118;11.734;2022-10-31T02:52:35;7.00;;;3.13;;
51332;SDS011;37417;48.118;11.734;2022-10-31T02:58:13;9.35;;;3.00;;
51332;SDS011;37417;48.118;11.734;2022-10-31T03:01:19;4.85;;;2.95;;
51332;SDS011;37417;48.118;11.734;2022-10-31T03:07:03;4.50;;;2.60;;
51332;SDS011;37417;48.118;11.734;2022-10-31T03:10:01;5.68;;;3.10;;
51332;SDS011;37417;48.118;11.734;2022-10-31T03:12:51;6.68;;;2.60;;
51332;SDS011;37417;48.118;11.734;2022-10-31T03:15:42;7.45;;;2.53;;
51332;SDS011;37417;48.118;11.734;2022-10-31T03:18:29;6.68;;;2.75;;
51332;SDS011;37417;48.118;11.734;2022-10-31T03:21:19;3.10;;;2.13;;
51332;SDS011;37417;48.118;11.734;2022-10-31T03:24:06;7.50;;;2.78;;
51332;SDS011;37417;48.118;11.734;2022-10-31T03:26:54;3.53;;;2.25;;
51332;SDS011;37417;48.118;11.734;2022-10-31T03:29:42;9.35;;;2.65;;
51332;SDS011;37417;48.118;11.734;2022-10-31T03:32:30;6.05;;;2.58;;
51332;SDS011;37417;48.118;11.734;2022-10-31T03:35:17;7.32;;;2.50;;
51332;SDS011;37417;48.118;11.734;2022-10-31T03:38:03;10.20;;;2.97;;
51332;SDS011;37417;48.118;11.734;2022-10-31T03:40:50;5.55;;;2.35;;
51332;SDS011;37417;48.118;11.734;2022-10-31T03:43:38;9.65;;;2.38;;
51332;SDS011;37417;48.118;11.734;2022-10-31T03:46:25;5.50;;;2.20;;
51332;SDS011;37417;48.118;11.734;2022-10-31T03:49:11;4.28;;;2.00;;
51332;SDS011;37417;48.118;11.734;2022-10-31T03:51:59;9.43;;;3.13;;
51332;SDS011;37417;48.118;11.734;2022-10-31T03:54:46;13.10;;;2.75;;
51332;SDS011;37417;48.118;11.734;2022-10-31T04:00:32;4.18;;;1.77;;
51332;SDS011;37417;48.118;11.734;2022-10-31T04:06:08;13.77;;;2.80;;
51332;SDS011;37417;48.118;11.734;2022-10-31T04:08:56;5.65;;;2.22;;
51332;SDS011;37417;48.118;11.734;2022-10-31T04:11:44;5.57;;;2.58;;
51332;SDS011;37417;48.118;11.734;2022-10-31T04:14:31;9.05;;;2.60;;
51332;SDS011;37417;48.118;11.734;2022-10-31T04:17:18;4.45;;;2.33;;
51332;SDS011;37417;48.118;11.734;2022-10-31T04:20:04;7.43;;;2.40;;
51332;SDS011;37417;48.118;11.734;2022-10-31T04:22:50;4.95;;;2.70;;
51332;SDS011;37417;48.118;11.734;2022-10-31T04:25:35;3.75;;;1.80;;
51332;SDS011;37417;48.118;11.734;2022-10-31T04:28:21;5.55;;;2.63;;
51332;SDS011;37417;48.118;11.734;2022-10-31T04:31:07;6.80;;;2.67;;
51332;SDS011;37417;48.118;11.734;2022-10-31T04:33:53;6.18;;;2.33;;
51332;SDS011;37417;48.118;11.734;2022-10-31T04:36:39;6.78;;;2.65;;
51332;SDS011;37417;48.118;11.734;2022-10-31T04:39:25;4.63;;;2.42;;
51332;SDS011;37417;48.118;11.734;2022-10-31T04:42:10;6.40;;;2.38;;
51332;SDS011;37417;48.118;11.734;2022-10-31T04:44:56;6.00;;;2.63;;
51332;SDS011;37417;48.118;11.734;2022-10-31T04:47:41;5.65;;;2.40;;
51332;SDS011;37417;48.118;11.734;2022-10-31T04:50:27;9.18;;;2.33;;
51332;SDS011;37417;48.118;11.734;2022-10-31T04:53:12;13.27;;;2.92;;
51332;SDS011;37417;48.118;11.734;2022-10-31T04:55:58;5.38;;;2.58;;
51332;SDS011;37417;48.118;11.734;2022-10-31T04:58:44;5.32;;;2.67;;
51332;SDS011;37417;48.118;11.734;2022-10-31T05:01:30;6.20;;;2.75;;
51332;SDS011;37417;48.118;11.734;2022-10-31T05:04:15;5.72;;;2.25;;
51332;SDS011;37417;48.118;11.734;2022-10-31T05:07:01;6.30;;;2.42;;
51332;SDS011;37417;48.118;11.734;2022-10-31T05:09:47;7.32;;;3.35;;
51332;SDS011;37417;48.118;11.734;2022-10-31T05:12:32;8.45;;;2.83;;
51332;SDS011;37417;48.118;11.734;2022-10-31T05:15:19;8.43;;;2.75;;
51332;SDS011;37417;48.118;11.734;2022-10-31T05:18:04;16.48;;;3.05;;
51332;SDS011;37417;48.118;11.734;2022-10-31T05:20:50;7.50;;;2.92;;
51332;SDS011;37417;48.118;11.734;2022-10-31T05:23:36;5.97;;;2.55;;
51332;SDS011;37417;48.118;11.734;2022-10-31T05:26:21;6.70;;;2.60;;
51332;SDS011;37417;48.118;11.734;2022-10-31T05:29:07;4.50;;;2.50;;
51332;SDS011;37417;48.118;11.734;2022-10-31T05:31:52;6.70;;;2.92;;
51332;SDS011;37417;48.118;11.734;2022-10-31T05:34:38;6.93;;;3.15;;
51332;SDS011;37417;48.118;11.734;2022-10-31T05:37:23;4.28;;;2.50;;
51332;SDS011;37417;48.118;11.734;2022-10-31T05:40:09;5.65;;;2.35;;
51332;SDS011;37417;48.118;11.734;2022-10-31T05:42:56;6.57;;;2.83;;
51332;SDS011;37417;48.118;11.734;2022-10-31T05:45:42;7.90;;;2.65;;
51332;SDS011;37417;48.118;11.734;2022-10-31T05:48:27;8.15;;;2.60;;
51332;SDS011;37417;48.118;11.734;2022-10-31T05:51:13;4.65;;;2.15;;
51332;SDS011;37417;48.118;11.734;2022-10-31T05:53:58;15.23;;;2.45;;
51332;SDS011;37417;48.118;11.734;2022-10-31T05:56:44;8.50;;;2.60;;
51332;SDS011;37417;48.118;11.734;2022-10-31T05:59:29;4.80;;;2.25;;
51332;SDS011;37417;48.118;11.734;2022-10-31T06:02:15;8.90;;;2.28;;
51332;SDS011;37417;48.118;11.734;2022-10-31T06:05:01;8.77;;;3.15;;
51332;SDS011;37417;48.118;11.734;2022-10-31T06:07:46;5.30;;;2.67;;
51332;SDS011;37417;48.118;11.734;2022-10-31T06:10:32;7.85;;;3.13;;
51332;SDS011;37417;48.118;11.734;2022-10-31T06:13:17;6.72;;;3.55;;
51332;SDS011;37417;48.118;11.734;2022-10-31T06:16:03;14.43;;;3.25;;
51332;SDS011;37417;48.118;11.734;2022-10-31T06:18:49;4.57;;;2.53;;
51332;SDS011;37417;48.118;11.734;2022-10-31T06:21:35;5.55;;;2.30;;
51332;SDS011;37417;48.118;11.734;2022-10-31T06:24:20;7.97;;;2.88;;
51332;SDS011;37417;48.118;11.734;2022-10-31T06:27:06;7.20;;;2.53;;
51332;SDS011;37417;48.118;11.734;2022-10-31T06:29:51;9.02;;;2.10;;
51332;SDS011;37417;48.118;11.734;2022-10-31T06:32:37;7.00;;;2.28;;
51332;SDS011;37417;48.118;11.734;2022-10-31T06:35:22;13.20;;;2.92;;
51332;SDS011;37417;48.118;11.734;2022-10-31T06:38:08;13.43;;;2.92;;
51332;SDS011;37417;48.118;11.734;2022-10-31T06:40:54;17.85;;;2.90;;
51332;SDS011;37417;48.118;11.734;2022-10-31T06:43:39;18.48;;;3.95;;
51332;SDS011;37417;48.118;11.734;2022-10-31T06:46:25;15.50;;;2.92;;
51332;SDS011;37417;48.118;11.734;2022-10-31T06:49:10;7.50;;;2.13;;
51332;SDS011;37417;48.118;11.734;2022-10-31T06:51:56;5.57;;;2.30;;
51332;SDS011;37417;48.118;11.734;2022-10-31T06:54:41;11.20;;;2.28;;
51332;SDS011;37417;48.118;11.734;2022-10-31T06:57:27;5.95;;;1.83;;
51332;SDS011;37417;48.118;11.734;2022-10-31T07:00:12;12.13;;;2.97;;
51332;SDS011;37417;48.118;11.734;2022-10-31T07:02:59;16.63;;;2.75;;
51332;SDS011;37417;48.118;11.734;2022-10-31T07:05:45;14.32;;;2.30;;
51332;SDS011;37417;48.118;11.734;2022-10-31T07:08:31;8.88;;;3.10;;
51332;SDS011;37417;48.118;11.734;2022-10-31T07:11:16;5.85;;;1.73;;
51332;SDS011;37417;48.118;11.734;2022-10-31T07:14:02;6.90;;;2.15;;
51332;SDS011;37417;48.118;11.734;2022-10-31T07:16:48;6.28;;;1.70;;
51332;SDS011;37417;48.118;11.734;2022-10-31T07:19:33;5.75;;;1.65;;
51332;SDS011;37417;48.118;11.734;2022-10-31T07:22:19;4.90;;;1.83;;
51332;SDS011;37417;48.118;11.734;2022-10-31T07:25:05;5.60;;;2.10;;
51332;SDS011;37417;48.118;11.734;2022-10-31T07:27:50;7.00;;;2.03;;
51332;SDS011;37417;48.118;11.734;2022-10-31T07:30:36;7.15;;;1.70;;
51332;SDS011;37417;48.118;11.734;2022-10-31T07:33:22;6.07;;;1.85;;
51332;SDS011;37417;48.118;11.734;2022-10-31T07:36:08;5.85;;;1.88;;
51332;SDS011;37417;48.118;11.734;2022-10-31T07:38:54;9.77;;;2.63;;
51332;SDS011;37417;48.118;11.734;2022-10-31T07:41:39;12.77;;;1.88;;
51332;SDS011;37417;48.118;11.734;2022-10-31T07:44:25;6.35;;;2.03;;
51332;SDS011;37417;48.118;11.734;2022-10-31T07:47:11;3.55;;;1.45;;
51332;SDS011;37417;48.118;11.734;2022-10-31T07:49:56;3.42;;;1.30;;
51332;SDS011;37417;48.118;11.734;2022-10-31T07:52:42;7.10;;;1.73;;
51332;SDS011;37417;48.118;11.734;2022-10-31T07:55:28;3.40;;;1.50;;
51332;SDS011;37417;48.118;11.734;2022-10-31T07:58:14;7.05;;;1.80;;
51332;SDS011;37417;48.118;11.734;2022-10-31T08:01:00;4.95;;;2.00;;
51332;SDS011;37417;48.118;11.734;2022-10-31T08:03:46;10.35;;;3.92;;
51332;SDS011;37417;48.118;11.734;2022-10-31T08:06:31;5.45;;;1.77;;
51332;SDS011;37417;48.118;11.734;2022-10-31T08:09:17;9.18;;;2.15;;
51332;SDS011;37417;48.118;11.734;2022-10-31T08:12:03;6.63;;;2.55;;
51332;SDS011;37417;48.118;11.734;2022-10-31T08:14:48;6.40;;;2.15;;
51332;SDS011;37417;48.118;11.734;2022-10-31T08:17:35;6.80;;;1.80;;
51332;SDS011;37417;48.118;11.734;2022-10-31T08:20:21;4.45;;;1.65;;
51332;SDS011;37417;48.118;11.734;2022-10-31T08:23:08;5.88;;;2.10;;
51332;SDS011;37417;48.118;11.734;2022-10-31T08:25:54;3.45;;;2.20;;
51332;SDS011;37417;48.118;11.734;2022-10-31T08:28:39;4.63;;;2.20;;
51332;SDS011;37417;48.118;11.734;2022-10-31T08:31:28;3.88;;;1.88;;
51332;SDS011;37417;48.118;11.734;2022-10-31T08:34:14;13.20;;;3.60;;
51332;SDS011;37417;48.118;11.734;2022-10-31T08:36:59;4.30;;;2.65;;
51332;SDS011;37417;48.118;11.734;2022-10-31T08:39:45;8.38;;;2.55;;
51332;SDS011;37417;48.118;11.734;2022-10-31T08:42:31;10.23;;;2.47;;
51332;SDS011;37417;48.118;11.734;2022-10-31T08:45:17;9.10;;;1.88;;
51332;SDS011;37417;48.118;11.734;2022-10-31T08:48:03;6.38;;;2.30;;
51332;SDS011;37417;48.118;11.734;2022-10-31T08:50:49;7.35;;;2.20;;
51332;SDS011;37417;48.118;11.734;2022-10-31T08:53:35;4.60;;;2.85;;
51332;SDS011;37417;48.118;11.734;2022-10-31T08:56:20;10.05;;;2.40;;
51332;SDS011;37417;48.118;11.734;2022-10-31T08:59:07;5.10;;;2.55;;
51332;SDS011;37417;48.118;11.734;2022-10-31T09:01:53;9.73;;;2.38;;
51332;SDS011;37417;48.118;11.734;2022-10-31T09:04:38;7.40;;;2.25;;
51332;SDS011;37417;48.118;11.734;2022-10-31T09:07:24;14.00;;;3.42;;
51332;SDS011;37417;48.118;11.734;2022-10-31T09:10:09;8.10;;;2.78;;
51332;SDS011;37417;48.118;11.734;2022-10-31T09:12:59;12.45;;;2.67;;
51332;SDS011;37417;48.118;11.734;2022-10-31T09:15:45;6.13;;;3.00;;
51332;SDS011;37417;48.118;11.734;2022-10-31T09:18:31;9.90;;;2.83;;
51332;SDS011;37417;48.118;11.734;2022-10-31T09:21:17;8.55;;;2.53;;
51332;SDS011;37417;48.118;11.734;2022-10-31T09:24:02;11.43;;;2.80;;
51332;SDS011;37417;48.118;11.734;2022-10-31T09:26:48;5.28;;;2.38;;
51332;SDS011;37417;48.118;11.734;2022-10-31T09:29:33;7.60;;;3.33;;
51332;SDS011;37417;48.118;11.734;2022-10-31T09:32:19;5.53;;;2.28;;
51332;SDS011;37417;48.118;11.734;2022-10-31T09:35:05;4.65;;;1.52;;
51332;SDS011;37417;48.118;11.734;2022-10-31T09:38:00;5.65;;;1.77;;
51332;SDS011;37417;48.118;11.734;2022-10-31T09:40:52;4.90;;;1.63;;
51332;SDS011;37417;48.118;11.734;2022-10-31T09:52:20;6.80;;;1.63;;
51332;SDS011;37417;48.118;11.734;2022-10-31T09:55:16;7.45;;;1.77;;
51332;SDS011;37417;48.118;11.734;2022-10-31T09:58:02;4.78;;;1.45;;
51332;SDS011;37417;48.118;11.734;2022-10-31T10:00:48;5.80;;;1.92;;
51332;SDS011;37417;48.118;11.734;2022-10-31T10:03:35;4.55;;;1.25;;
51332;SDS011;37417;48.118;11.734;2022-10-31T10:06:24;4.47;;;1.90;;
51332;SDS011;37417;48.118;11.734;2022-10-31T10:09:11;3.97;;;1.60;;
51332;SDS011;37417;48.118;11.734;2022-10-31T10:20:40;5.43;;;1.30;;
51332;SDS011;37417;48.118;11.734;2022-10-31T10:26:20;6.00;;;1.40;;
51332;SDS011;37417;48.118;11.734;2022-10-31T10:32:13;8.30;;;2.57;;
51332;SDS011;37417;48.118;11.734;2022-10-31T10:40:40;8.98;;;2.10;;
51332;SDS011;37417;48.118;11.734;2022-10-31T10:43:29;14.40;;;1.95;;
51332;SDS011;37417;48.118;11.734;2022-10-31T10:55:30;6.45;;;1.75;;
51332;SDS011;37417;48.118;11.734;2022-10-31T10:58:18;8.02;;;2.40;;
51332;SDS011;37417;48.118;11.734;2022-10-31T11:01:13;14.63;;;2.40;;
51332;SDS011;37417;48.118;11.734;2022-10-31T11:04:00;7.93;;;2.33;;
51332;SDS011;37417;48.118;11.734;2022-10-31T11:06:56;9.07;;;2.00;;
51332;SDS011;37417;48.118;11.734;2022-10-31T11:09:42;10.27;;;2.25;;
51332;SDS011;37417;48.118;11.734;2022-10-31T11:12:29;7.57;;;2.20;;
51332;SDS011;37417;48.118;11.734;2022-10-31T11:15:19;5.78;;;2.10;;
51332;SDS011;37417;48.118;11.734;2022-10-31T11:18:05;6.25;;;2.35;;
51332;SDS011;37417;48.118;11.734;2022-10-31T11:20:59;6.70;;;2.35;;
51332;SDS011;37417;48.118;11.734;2022-10-31T11:23:44;5.95;;;1.80;;
51332;SDS011;37417;48.118;11.734;2022-10-31T11:26:30;9.25;;;2.28;;
51332;SDS011;37417;48.118;11.734;2022-10-31T11:29:25;11.15;;;2.20;;
51332;SDS011;37417;48.118;11.734;2022-10-31T11:32:45;5.55;;;2.05;;
51332;SDS011;37417;48.118;11.734;2022-10-31T11:35:23;7.13;;;2.50;;
51332;SDS011;37417;48.118;11.734;2022-10-31T11:38:12;6.35;;;2.30;;
51332;SDS011;37417;48.118;11.734;2022-10-31T11:41:08;9.40;;;2.22;;
51332;SDS011;37417;48.118;11.734;2022-10-31T11:44:13;7.50;;;2.28;;
51332;SDS011;37417;48.118;11.734;2022-10-31T11:47:01;7.90;;;2.30;;
51332;SDS011;37417;48.118;11.734;2022-10-31T11:49:47;5.15;;;2.03;;
51332;SDS011;37417;48.118;11.734;2022-10-31T11:52:37;8.35;;;1.90;;
51332;SDS011;37417;48.118;11.734;2022-10-31T11:55:32;8.50;;;2.33;;
51332;SDS011;37417;48.118;11.734;2022-10-31T11:58:22;16.80;;;2.30;;
51332;SDS011;37417;48.118;11.734;2022-10-31T12:01:27;9.50;;;2.05;;
51332;SDS011;37417;48.118;11.734;2022-10-31T12:04:13;10.13;;;2.30;;
51332;SDS011;37417;48.118;11.734;2022-10-31T12:06:59;8.00;;;1.90;;
51332;SDS011;37417;48.118;11.734;2022-10-31T12:09:44;8.27;;;2.22;;
51332;SDS011;37417;48.118;11.734;2022-10-31T12:12:33;7.38;;;2.72;;
51332;SDS011;37417;48.118;11.734;2022-10-31T12:15:27;6.68;;;2.10;;
51332;SDS011;37417;48.118;11.734;2022-10-31T12:21:12;11.05;;;2.55;;
51332;SDS011;37417;48.118;11.734;2022-10-31T12:26:54;12.13;;;1.95;;
51332;SDS011;37417;48.118;11.734;2022-10-31T12:38:22;8.77;;;2.50;;
51332;SDS011;37417;48.118;11.734;2022-10-31T12:47:26;6.13;;;1.70;;
51332;SDS011;37417;48.118;11.734;2022-10-31T12:58:50;15.63;;;2.92;;
51332;SDS011;37417;48.118;11.734;2022-10-31T13:04:41;5.25;;;2.10;;
51332;SDS011;37417;48.118;11.734;2022-10-31T13:07:30;6.80;;;2.03;;
51332;SDS011;37417;48.118;11.734;2022-10-31T13:10:19;5.90;;;2.55;;
51332;SDS011;37417;48.118;11.734;2022-10-31T13:13:20;10.20;;;2.38;;
51332;SDS011;37417;48.118;11.734;2022-10-31T13:16:21;8.45;;;1.98;;
51332;SDS011;37417;48.118;11.734;2022-10-31T13:22:20;6.90;;;2.25;;
51332;SDS011;37417;48.118;11.734;2022-10-31T13:28:02;7.30;;;1.60;;
51332;SDS011;37417;48.118;11.734;2022-10-31T13:30:50;5.53;;;2.10;;
51332;SDS011;37417;48.118;11.734;2022-10-31T13:33:42;14.30;;;2.03;;
51332;SDS011;37417;48.118;11.734;2022-10-31T13:36:34;4.25;;;2.33;;
51332;SDS011;37417;48.118;11.734;2022-10-31T13:45:13;8.68;;;2.10;;
51332;SDS011;37417;48.118;11.734;2022-10-31T13:47:59;6.35;;;2.08;;
51332;SDS011;37417;48.118;11.734;2022-10-31T13:50:55;4.53;;;1.92;;
51332;SDS011;37417;48.118;11.734;2022-10-31T13:53:45;10.05;;;2.00;;
51332;SDS011;37417;48.118;11.734;2022-10-31T13:56:41;10.93;;;2.40;;
51332;SDS011;37417;48.118;11.734;2022-10-31T13:59:27;7.43;;;2.20;;
51332;SDS011;37417;48.118;11.734;2022-10-31T14:02:14;5.50;;;2.15;;
51332;SDS011;37417;48.118;11.734;2022-10-31T14:05:04;15.15;;;2.35;;
51332;SDS011;37417;48.118;11.734;2022-10-31T14:07:51;6.43;;;2.40;;
51332;SDS011;37417;48.118;11.734;2022-10-31T14:10:38;10.27;;;2.35;;
51332;SDS011;37417;48.118;11.734;2022-10-31T14:13:32;9.65;;;2.17;;
51332;SDS011;37417;48.118;11.734;2022-10-31T14:19:08;7.30;;;1.80;;
51332;SDS011;37417;48.118;11.734;2022-10-31T14:21:59;10.68;;;2.17;;
51332;SDS011;37417;48.118;11.734;2022-10-31T14:24:44;12.73;;;2.83;;
51332;SDS011;37417;48.118;11.734;2022-10-31T14:27:32;9.55;;;2.25;;
51332;SDS011;37417;48.118;11.734;2022-10-31T14:30:20;9.40;;;2.92;;
51332;SDS011;37417;48.118;11.734;2022-10-31T14:33:18;6.90;;;2.03;;
51332;SDS011;37417;48.118;11.734;2022-10-31T14:36:11;5.38;;;2.13;;
51332;SDS011;37417;48.118;11.734;2022-10-31T14:42:26;13.85;;;2.53;;
51332;SDS011;37417;48.118;11.734;2022-10-31T14:45:21;6.78;;;2.03;;
51332;SDS011;37417;48.118;11.734;2022-10-31T14:51:23;6.85;;;3.15;;
51332;SDS011;37417;48.118;11.734;2022-10-31T14:57:32;8.57;;;2.10;;
51332;SDS011;37417;48.118;11.734;2022-10-31T15:00:20;3.90;;;2.03;;
51332;SDS011;37417;48.118;11.734;2022-10-31T15:03:12;8.30;;;2.00;;
51332;SDS011;37417;48.118;11.734;2022-10-31T15:06:10;10.95;;;2.45;;
51332;SDS011;37417;48.118;11.734;2022-10-31T15:08:56;8.50;;;2.33;;
51332;SDS011;37417;48.118;11.734;2022-10-31T15:11:42;9.90;;;3.20;;
51332;SDS011;37417;48.118;11.734;2022-10-31T15:14:28;5.78;;;2.35;;
51332;SDS011;37417;48.118;11.734;2022-10-31T15:17:14;5.60;;;2.17;;
51332;SDS011;37417;48.118;11.734;2022-10-31T15:20:00;10.20;;;3.08;;
51332;SDS011;37417;48.118;11.734;2022-10-31T15:22:47;13.05;;;2.55;;
51332;SDS011;37417;48.118;11.734;2022-10-31T15:25:33;7.65;;;2.65;;
51332;SDS011;37417;48.118;11.734;2022-10-31T15:28:23;12.52;;;2.28;;
51332;SDS011;37417;48.118;11.734;2022-10-31T15:31:13;9.57;;;2.65;;
51332;SDS011;37417;48.118;11.734;2022-10-31T15:34:05;4.90;;;2.20;;
51332;SDS011;37417;48.118;11.734;2022-10-31T15:36:51;7.13;;;2.55;;
51332;SDS011;37417;48.118;11.734;2022-10-31T15:39:37;9.68;;;2.65;;
51332;SDS011;37417;48.118;11.734;2022-10-31T15:42:30;8.82;;;2.30;;
51332;SDS011;37417;48.118;11.734;2022-10-31T15:45:19;9.20;;;3.25;;
51332;SDS011;37417;48.118;11.734;2022-10-31T15:48:18;5.45;;;2.03;;
51332;SDS011;37417;48.118;11.734;2022-10-31T15:51:04;12.95;;;2.63;;
51332;SDS011;37417;48.118;11.734;2022-10-31T15:53:50;9.57;;;3.08;;
51332;SDS011;37417;48.118;11.734;2022-10-31T15:56:37;8.73;;;2.47;;
51332;SDS011;37417;48.118;11.734;2022-10-31T15:59:24;10.70;;;2.42;;
51332;SDS011;37417;48.118;11.734;2022-10-31T16:02:11;8.05;;;2.40;;
51332;SDS011;37417;48.118;11.734;2022-10-31T16:04:59;16.45;;;2.85;;
51332;SDS011;37417;48.118;11.734;2022-10-31T16:07:48;5.38;;;2.55;;
51332;SDS011;37417;48.118;11.734;2022-10-31T16:10:35;9.50;;;3.70;;
51332;SDS011;37417;48.118;11.734;2022-10-31T16:13:23;8.15;;;2.80;;
51332;SDS011;37417;48.118;11.734;2022-10-31T16:16:11;11.00;;;3.45;;
51332;SDS011;37417;48.118;11.734;2022-10-31T16:18:57;11.95;;;3.25;;
51332;SDS011;37417;48.118;11.734;2022-10-31T16:21:44;8.02;;;3.53;;
51332;SDS011;37417;48.118;11.734;2022-10-31T16:24:30;11.43;;;3.70;;
51332;SDS011;37417;48.118;11.734;2022-10-31T16:27:17;6.63;;;3.60;;
51332;SDS011;37417;48.118;11.734;2022-10-31T16:30:28;7.25;;;3.22;;
51332;SDS011;37417;48.118;11.734;2022-10-31T16:36:30;14.00;;;3.38;;
51332;SDS011;37417;48.118;11.734;2022-10-31T16:39:16;11.15;;;4.25;;
51332;SDS011;37417;48.118;11.734;2022-10-31T16:42:02;6.22;;;3.42;;
51332;SDS011;37417;48.118;11.734;2022-10-31T16:44:48;12.25;;;3.80;;
51332;SDS011;37417;48.118;11.734;2022-10-31T16:47:34;11.38;;;3.70;;
51332;SDS011;37417;48.118;11.734;2022-10-31T16:50:21;10.52;;;4.00;;
51332;SDS011;37417;48.118;11.734;2022-10-31T16:53:07;13.32;;;3.08;;
51332;SDS011;37417;48.118;11.734;2022-10-31T16:55:56;9.80;;;3.78;;
51332;SDS011;37417;48.118;11.734;2022-10-31T16:58:43;8.35;;;3.38;;
51332;SDS011;37417;48.118;11.734;2022-10-31T17:01:29;10.43;;;3.70;;
51332;SDS011;37417;48.118;11.734;2022-10-31T17:04:14;11.25;;;4.45;;
51332;SDS011;37417;48.118;11.734;2022-10-31T17:07:00;21.75;;;4.30;;
51332;SDS011;37417;48.118;11.734;2022-10-31T17:09:46;7.75;;;3.60;;
51332;SDS011;37417;48.118;11.734;2022-10-31T17:12:31;13.50;;;4.38;;
51332;SDS011;37417;48.118;11.734;2022-10-31T17:15:21;14.10;;;4.38;;
51332;SDS011;37417;48.118;11.734;2022-10-31T17:18:09;16.60;;;5.18;;
51332;SDS011;37417;48.118;11.734;2022-10-31T17:21:00;12.15;;;4.72;;
51332;SDS011;37417;48.118;11.734;2022-10-31T17:23:46;10.52;;;5.18;;
51332;SDS011;37417;48.118;11.734;2022-10-31T17:26:31;17.88;;;5.65;;
51332;SDS011;37417;48.118;11.734;2022-10-31T17:29:17;12.40;;;5.18;;
51332;SDS011;37417;48.118;11.734;2022-10-31T17:32:03;17.40;;;8.13;;
51332;SDS011;37417;48.118;11.734;2022-10-31T17:34:48;12.68;;;6.50;;
51332;SDS011;37417;48.118;11.734;2022-10-31T17:37:34;18.70;;;6.88;;
51332;SDS011;37417;48.118;11.734;2022-10-31T17:40:20;18.50;;;5.70;;
51332;SDS011;37417;48.118;11.734;2022-10-31T17:43:06;11.63;;;5.38;;
51332;SDS011;37417;48.118;11.734;2022-10-31T17:45:51;8.43;;;4.90;;
51332;SDS011;37417;48.118;11.734;2022-10-31T17:48:37;11.18;;;4.60;;
51332;SDS011;37417;48.118;11.734;2022-10-31T17:51:23;19.98;;;6.25;;
51332;SDS011;37417;48.118;11.734;2022-10-31T17:54:08;12.35;;;4.60;;
51332;SDS011;37417;48.118;11.734;2022-10-31T17:56:55;10.43;;;5.05;;
51332;SDS011;37417;48.118;11.734;2022-10-31T17:59:41;13.52;;;4.80;;
51332;SDS011;37417;48.118;11.734;2022-10-31T18:02:27;10.93;;;5.53;;
51332;SDS011;37417;48.118;11.734;2022-10-31T18:05:12;12.43;;;5.32;;
51332;SDS011;37417;48.118;11.734;2022-10-31T18:07:58;12.88;;;5.50;;
51332;SDS011;37417;48.118;11.734;2022-10-31T18:10:44;16.67;;;6.40;;
51332;SDS011;37417;48.118;11.734;2022-10-31T18:13:29;10.20;;;5.93;;
51332;SDS011;37417;48.118;11.734;2022-10-31T18:16:15;13.35;;;7.05;;
51332;SDS011;37417;48.118;11.734;2022-10-31T18:19:03;15.68;;;5.78;;
51332;SDS011;37417;48.118;11.734;2022-10-31T18:21:49;10.15;;;5.68;;
51332;SDS011;37417;48.118;11.734;2022-10-31T18:24:35;11.27;;;6.50;;
51332;SDS011;37417;48.118;11.734;2022-10-31T18:27:21;12.77;;;5.75;;
51332;SDS011;37417;48.118;11.734;2022-10-31T18:30:06;13.98;;;6.60;;
51332;SDS011;37417;48.118;11.734;2022-10-31T18:32:52;16.45;;;8.07;;
51332;SDS011;37417;48.118;11.734;2022-10-31T18:35:38;20.20;;;8.07;;